アムステルダム/スキポール の空港の天気 - METARとTAF

スキポール空港(アムステルダム) ( EHAM / AMS ) - オランダ アムステルダム
飛行場実況気象(Metar)
観測時間04/27 06:55 CEST (04/27 04:55 UTC)
風向・風速南南東 3m/s
視程10km以上
天気現象
少しの雲 雲底高度 210m
全天の8割程度の雲 雲底高度 270m
気温7℃
湿度93%
気圧1013hPa
METAREHAM 270455Z 16006KT 130V190 9999 FEW007 BKN009 07/06 Q1013 TEMPO SCT009
過去の天気等 Google飛行場航空写真 Wunderground天気予報

過去48時間のMETAR

飛行場予報(TAF)
発表時間: 4/27 01:16 CEST (4/26 23:16 UTC)
予報対象時間: 27日2時 CEST ~ 28日8時 CEST
風向・風速南南西 4m/s
視程10km以上
全天の4割程度の雲 雲底高度 910m
27日14時 CEST ~ 27日17時 CEST に 確率 30% で一時的に
視程7,000m
天気現象弱い雨
全天の4割程度の雲 雲底高度 460m
全天の8割程度の雲 雲底高度 1,220m
27日16時 CEST ~ 27日19時 CEST に徐々に
風向・風速東 4m/s
28日2時 CEST ~ 28日5時 CEST に徐々に
風向・風速南南西 3m/s
TAF EHAM 262316Z 2700/2806 20008KT 9999 SCT030
PROB30 TEMPO 2712/2715 7000 -RA SCT015 BKN040
BECMG 2714/2717 08007KT
BECMG 2800/2803 20006KT